createdAt,value
2023-05-07T00:00:07.298Z,11.80
2023-05-07T00:01:07.317Z,11.90
2023-05-07T00:02:07.563Z,12.20
2023-05-07T00:03:07.354Z,11.70
2023-05-07T00:04:07.373Z,11.10
2023-05-07T00:05:07.352Z,11.60
2023-05-07T00:06:07.293Z,11.50
2023-05-07T00:07:07.294Z,11.40
2023-05-07T00:08:07.293Z,11.60
2023-05-07T00:09:07.285Z,11.30
2023-05-07T00:10:07.283Z,11.40
2023-05-07T00:11:07.303Z,11.40
2023-05-07T00:12:07.281Z,11.60
2023-05-07T00:13:07.310Z,11.50
2023-05-07T00:14:07.296Z,11.20
2023-05-07T00:15:07.271Z,11.30
2023-05-07T00:16:07.327Z,11.10
2023-05-07T00:17:07.272Z,11.60
2023-05-07T00:18:07.357Z,11.40
2023-05-07T00:19:07.277Z,11.30
2023-05-07T00:20:07.273Z,11.40
2023-05-07T00:21:07.275Z,11.60
2023-05-07T00:22:07.267Z,11.30
2023-05-07T00:23:07.263Z,11.60
2023-05-07T00:24:07.275Z,11.60
2023-05-07T00:25:07.263Z,12.00
2023-05-07T00:26:07.269Z,12.00
2023-05-07T00:27:07.260Z,11.90
2023-05-07T00:28:07.259Z,11.90
2023-05-07T00:29:07.255Z,12.10
2023-05-07T00:30:07.258Z,11.80
2023-05-07T00:31:07.255Z,11.20
2023-05-07T00:32:07.425Z,11.30
2023-05-07T00:33:07.288Z,11.30
2023-05-07T00:34:07.344Z,11.50
2023-05-07T00:35:07.246Z,11.50
2023-05-07T00:36:07.252Z,11.40
2023-05-07T00:37:07.251Z,11.60
2023-05-07T00:38:07.246Z,11.20
2023-05-07T00:39:07.245Z,11.40
2023-05-07T00:40:07.252Z,11.20
2023-05-07T00:41:07.241Z,11.50
2023-05-07T00:42:07.246Z,11.30
2023-05-07T00:43:07.240Z,11.20
2023-05-07T00:44:07.242Z,11.20
2023-05-07T00:45:07.234Z,10.90
2023-05-07T00:46:07.297Z,11.30
2023-05-07T00:47:07.234Z,11.40
2023-05-07T00:48:07.276Z,11.20
2023-05-07T00:49:07.243Z,11.10
2023-05-07T00:50:07.429Z,11.60
2023-05-07T00:51:07.231Z,11.50
2023-05-07T00:52:07.233Z,10.90
2023-05-07T00:53:07.233Z,11.30
2023-05-07T00:54:07.249Z,11.00
2023-05-07T00:55:07.227Z,10.80
2023-05-07T00:56:07.234Z,11.30
2023-05-07T00:57:07.221Z,11.20
2023-05-07T00:58:07.220Z,11.10
2023-05-07T00:59:07.282Z,10.80
2023-05-07T01:00:07.223Z,10.70
2023-05-07T01:01:07.259Z,11.00
2023-05-07T01:02:07.220Z,11.10
2023-05-07T01:03:07.212Z,10.60
2023-05-07T01:04:07.320Z,10.80
2023-05-07T01:05:07.237Z,10.70
2023-05-07T01:06:07.614Z,10.90
2023-05-07T01:07:07.220Z,11.00
2023-05-07T01:08:07.218Z,10.80
2023-05-07T01:09:07.222Z,10.70
2023-05-07T01:10:07.227Z,10.90
2023-05-07T01:11:07.209Z,11.10
2023-05-07T01:12:07.210Z,10.90
2023-05-07T01:13:07.213Z,10.80
2023-05-07T01:14:07.208Z,10.90
2023-05-07T01:15:07.215Z,10.60
2023-05-07T01:16:07.202Z,11.30
2023-05-07T01:17:07.233Z,10.80
2023-05-07T01:18:07.246Z,10.60
2023-05-07T01:19:07.196Z,10.50
2023-05-07T01:20:07.202Z,10.70
2023-05-07T01:21:07.197Z,10.70
2023-05-07T01:22:07.295Z,11.10
2023-05-07T01:23:07.214Z,10.90
2023-05-07T01:24:07.197Z,11.10
2023-05-07T01:25:07.198Z,11.10
2023-05-07T01:26:07.192Z,11.10
2023-05-07T01:27:07.191Z,11.30
2023-05-07T01:28:07.190Z,11.30
2023-05-07T01:29:07.184Z,10.80
2023-05-07T01:30:07.195Z,11.20
2023-05-07T01:31:07.278Z,10.80
2023-05-07T01:32:07.181Z,10.80
2023-05-07T01:33:07.278Z,10.90
2023-05-07T01:34:07.188Z,10.60
2023-05-07T01:35:07.187Z,11.10
2023-05-07T01:36:07.202Z,10.80
2023-05-07T01:37:07.174Z,10.80
2023-05-07T01:38:07.312Z,10.80
2023-05-07T01:39:07.196Z,10.80
2023-05-07T01:40:07.183Z,11.00
2023-05-07T01:41:07.193Z,10.90
2023-05-07T01:42:07.175Z,10.70
2023-05-07T01:43:07.170Z,10.70
2023-05-07T01:44:07.187Z,10.80
2023-05-07T01:45:07.172Z,10.70
2023-05-07T01:46:07.181Z,10.60
2023-05-07T01:47:07.162Z,10.70
2023-05-07T01:48:07.245Z,11.00
2023-05-07T01:49:07.165Z,10.80
2023-05-07T01:50:07.155Z,10.70
2023-05-07T01:51:07.173Z,10.90
2023-05-07T01:52:07.156Z,10.90
2023-05-07T01:53:07.163Z,10.90
2023-05-07T01:54:07.256Z,10.80
2023-05-07T01:55:07.164Z,11.00
2023-05-07T01:56:07.150Z,11.10
2023-05-07T01:57:07.148Z,10.80
2023-05-07T01:58:07.150Z,11.10
2023-05-07T01:59:07.151Z,10.90
2023-05-07T02:00:07.149Z,10.80
2023-05-07T02:01:07.142Z,10.70
2023-05-07T02:02:07.260Z,11.00
2023-05-07T02:03:07.277Z,10.30
2023-05-07T02:04:07.213Z,10.80
2023-05-07T02:05:07.144Z,10.80
2023-05-07T02:06:07.134Z,11.80
2023-05-07T02:07:07.141Z,10.70
2023-05-07T02:08:07.131Z,10.80
2023-05-07T02:09:07.135Z,10.60
2023-05-07T02:10:07.258Z,10.90
2023-05-07T02:11:07.135Z,11.00
2023-05-07T02:12:07.143Z,11.30
2023-05-07T02:13:07.166Z,10.50
2023-05-07T02:14:07.139Z,10.90
2023-05-07T02:15:07.129Z,10.50
2023-05-07T02:16:07.149Z,10.80
2023-05-07T02:17:07.149Z,11.10
2023-05-07T02:18:07.225Z,10.80
2023-05-07T02:19:07.132Z,10.60
2023-05-07T02:20:07.123Z,11.00
2023-05-07T02:21:07.134Z,11.10
2023-05-07T02:22:07.134Z,11.10
2023-05-07T02:23:07.127Z,10.90
2023-05-07T02:24:07.125Z,11.20
2023-05-07T02:25:07.120Z,11.10
2023-05-07T02:26:07.137Z,11.30
2023-05-07T02:27:07.117Z,11.30
2023-05-07T02:28:07.116Z,11.40
2023-05-07T02:29:07.126Z,11.40
2023-05-07T02:30:07.116Z,11.00
2023-05-07T02:31:07.125Z,10.90
2023-05-07T02:32:07.159Z,10.90
2023-05-07T02:33:07.145Z,11.60
2023-05-07T02:34:07.105Z,10.90
2023-05-07T02:35:07.112Z,11.00
2023-05-07T02:36:07.127Z,11.10
2023-05-07T02:37:07.104Z,10.80
2023-05-07T02:38:07.125Z,11.20
2023-05-07T02:39:07.112Z,10.80
2023-05-07T02:40:07.119Z,10.70
2023-05-07T02:41:07.110Z,10.50
2023-05-07T02:42:07.190Z,10.90
2023-05-07T02:43:07.108Z,10.50
2023-05-07T02:44:07.108Z,11.70
2023-05-07T02:45:07.095Z,13.30
2023-05-07T02:46:07.135Z,10.50
2023-05-07T02:47:07.099Z,10.70
2023-05-07T02:48:07.142Z,10.80
2023-05-07T02:49:07.106Z,10.60
2023-05-07T02:50:07.094Z,10.70
2023-05-07T02:51:07.085Z,10.90
2023-05-07T02:52:07.085Z,10.90
2023-05-07T02:53:07.091Z,10.50
2023-05-07T02:54:07.086Z,10.50
2023-05-07T02:55:07.106Z,11.00
2023-05-07T02:56:07.079Z,10.70
2023-05-07T02:57:07.093Z,11.00
2023-05-07T02:58:07.177Z,10.80
2023-05-07T02:59:07.082Z,10.70
2023-05-07T03:00:07.073Z,10.70
2023-05-07T03:01:07.109Z,10.70
2023-05-07T03:02:07.085Z,11.20
2023-05-07T03:03:07.131Z,11.00
2023-05-07T03:04:07.204Z,10.60
2023-05-07T03:05:07.104Z,10.70
2023-05-07T03:06:07.063Z,10.50
2023-05-07T03:07:07.067Z,11.00
2023-05-07T03:08:07.072Z,11.00
2023-05-07T03:09:07.069Z,10.90
2023-05-07T03:10:07.066Z,11.30
2023-05-07T03:11:07.072Z,11.00
2023-05-07T03:12:07.060Z,10.90
2023-05-07T03:13:07.209Z,11.00
2023-05-07T03:14:07.077Z,11.20
2023-05-07T03:15:07.077Z,11.20
2023-05-07T03:16:07.083Z,11.20
2023-05-07T03:17:07.061Z,11.80
2023-05-07T03:18:07.163Z,11.60
2023-05-07T03:19:07.257Z,11.70
2023-05-07T03:20:07.059Z,11.50
2023-05-07T03:21:07.071Z,12.10
2023-05-07T03:22:07.058Z,12.10
2023-05-07T03:23:07.047Z,11.70
2023-05-07T03:24:07.067Z,11.90
2023-05-07T03:25:07.051Z,11.30
2023-05-07T03:26:07.042Z,11.20
2023-05-07T03:27:07.094Z,10.90
2023-05-07T03:28:07.037Z,11.60
2023-05-07T03:29:07.039Z,11.10
2023-05-07T03:30:07.124Z,10.70
2023-05-07T03:31:07.066Z,11.00
2023-05-07T03:32:07.036Z,11.00
2023-05-07T03:33:07.063Z,11.20
2023-05-07T03:34:07.033Z,11.20
2023-05-07T03:35:07.033Z,11.00
2023-05-07T03:36:07.027Z,11.10
2023-05-07T03:37:07.085Z,10.50
2023-05-07T03:38:07.022Z,10.80
2023-05-07T03:39:07.042Z,10.50
2023-05-07T03:40:07.021Z,11.00
2023-05-07T03:41:07.023Z,11.10
2023-05-07T03:42:07.021Z,10.90
2023-05-07T03:43:07.027Z,10.70
2023-05-07T03:44:07.013Z,10.70
2023-05-07T03:45:07.019Z,10.60
2023-05-07T03:46:07.154Z,10.60
2023-05-07T03:47:07.016Z,10.80
2023-05-07T03:48:07.081Z,10.60
2023-05-07T03:49:07.024Z,10.50
2023-05-07T03:50:07.021Z,10.70
2023-05-07T03:51:07.008Z,10.80
2023-05-07T03:52:07.009Z,10.60
2023-05-07T03:53:07.021Z,10.60
2023-05-07T03:54:07.013Z,10.80
2023-05-07T03:55:07.006Z,10.70
2023-05-07T03:56:07.001Z,10.60
2023-05-07T03:57:07.012Z,10.50
2023-05-07T03:58:07.005Z,12.30
2023-05-07T03:59:07.010Z,10.70
2023-05-07T04:00:07.010Z,11.10
2023-05-07T04:01:07.000Z,11.10
2023-05-07T04:02:07.186Z,11.00
2023-05-07T04:03:07.062Z,10.50
2023-05-07T04:04:07.055Z,10.70
2023-05-07T04:05:07.001Z,10.30
2023-05-07T04:06:06.991Z,10.70
2023-05-07T04:07:06.997Z,10.80
2023-05-07T04:08:06.995Z,11.10
2023-05-07T04:09:06.999Z,10.70
2023-05-07T04:10:06.990Z,11.10
2023-05-07T04:11:06.992Z,10.70
2023-05-07T04:12:06.991Z,10.80
2023-05-07T04:13:07.032Z,10.80
2023-05-07T04:14:06.986Z,10.70
2023-05-07T04:15:07.003Z,10.80
2023-05-07T04:16:07.005Z,11.10
2023-05-07T04:17:06.981Z,10.70
2023-05-07T04:18:07.103Z,10.80
2023-05-07T04:19:06.981Z,10.90
2023-05-07T04:20:06.979Z,10.40
2023-05-07T04:21:07.029Z,10.70
2023-05-07T04:22:06.971Z,10.80
2023-05-07T04:23:06.972Z,11.20
2023-05-07T04:24:06.969Z,10.90
2023-05-07T04:25:06.978Z,10.80
2023-05-07T04:26:06.969Z,10.90
2023-05-07T04:27:06.978Z,11.00
2023-05-07T04:28:06.973Z,10.80
2023-05-07T04:29:06.970Z,10.50
2023-05-07T04:30:06.961Z,10.70
2023-05-07T04:31:06.966Z,10.80
2023-05-07T04:32:07.030Z,10.60
2023-05-07T04:33:07.077Z,10.60
2023-05-07T04:34:07.124Z,11.10
2023-05-07T04:35:06.957Z,10.70
2023-05-07T04:36:06.990Z,11.00
2023-05-07T04:37:06.955Z,11.10
2023-05-07T04:38:06.949Z,11.10
2023-05-07T04:39:06.956Z,11.10
2023-05-07T04:40:06.971Z,10.80
2023-05-07T04:41:06.991Z,11.50
2023-05-07T04:42:06.950Z,11.40
2023-05-07T04:43:06.947Z,11.40
2023-05-07T04:44:06.975Z,10.90
2023-05-07T04:45:06.950Z,10.90
2023-05-07T04:46:06.970Z,10.90
2023-05-07T04:47:06.944Z,11.00
2023-05-07T04:48:06.967Z,10.80
2023-05-07T04:49:06.992Z,11.10
2023-05-07T04:50:06.958Z,10.90
2023-05-07T04:51:06.938Z,10.70
2023-05-07T04:52:06.933Z,10.90
2023-05-07T04:53:06.945Z,10.90
2023-05-07T04:54:06.933Z,10.70
2023-05-07T04:55:06.935Z,10.80
2023-05-07T04:56:06.931Z,10.90
2023-05-07T04:57:06.936Z,11.30
2023-05-07T04:58:06.945Z,11.30
2023-05-07T04:59:06.952Z,11.10
2023-05-07T05:00:06.932Z,11.10
2023-05-07T05:01:06.976Z,11.00
2023-05-07T05:02:06.925Z,11.10
2023-05-07T05:03:07.093Z,11.10
2023-05-07T05:04:07.000Z,11.00
2023-05-07T05:05:06.924Z,11.20
2023-05-07T05:06:07.076Z,11.00
2023-05-07T05:07:06.923Z,11.10
2023-05-07T05:08:06.922Z,11.20
2023-05-07T05:09:06.917Z,11.20
2023-05-07T05:10:06.935Z,10.90
2023-05-07T05:11:06.941Z,11.20
2023-05-07T05:12:06.925Z,10.90
2023-05-07T05:13:06.945Z,10.90
2023-05-07T05:14:06.915Z,11.10
2023-05-07T05:15:06.922Z,11.10
2023-05-07T05:16:06.968Z,10.90
2023-05-07T05:17:06.917Z,11.20
2023-05-07T05:18:06.957Z,11.10
2023-05-07T05:19:06.926Z,11.40
2023-05-07T05:20:06.924Z,11.00
2023-05-07T05:21:06.918Z,11.50
2023-05-07T05:22:07.007Z,11.30
2023-05-07T05:23:06.914Z,11.20
2023-05-07T05:24:06.912Z,10.80
2023-05-07T05:25:06.909Z,10.80
2023-05-07T05:26:06.899Z,11.10
2023-05-07T05:27:06.904Z,10.90
2023-05-07T05:28:06.894Z,10.50
2023-05-07T05:29:06.901Z,10.60
2023-05-07T05:30:06.899Z,10.70
2023-05-07T05:31:06.959Z,10.40
2023-05-07T05:32:06.894Z,10.60
2023-05-07T05:33:06.977Z,10.60
2023-05-07T05:34:06.902Z,10.50
2023-05-07T05:35:06.898Z,11.20
2023-05-07T05:36:06.901Z,10.60
2023-05-07T05:37:06.896Z,10.80
2023-05-07T05:38:06.991Z,10.90
2023-05-07T05:39:06.888Z,10.60
2023-05-07T05:40:06.895Z,10.80
2023-05-07T05:41:06.889Z,11.00
2023-05-07T05:42:06.890Z,11.00
2023-05-07T05:43:06.897Z,10.90
2023-05-07T05:44:06.879Z,10.80
2023-05-07T05:45:06.901Z,11.40
2023-05-07T05:46:06.922Z,10.80
2023-05-07T05:47:06.884Z,11.10
2023-05-07T05:48:06.908Z,11.40
2023-05-07T05:49:06.882Z,10.90
2023-05-07T05:50:06.877Z,10.70
2023-05-07T05:51:06.878Z,10.90
2023-05-07T05:52:07.986Z,10.90
2023-05-07T05:53:06.877Z,11.10
2023-05-07T05:54:06.899Z,10.90
2023-05-07T05:55:06.890Z,11.30
2023-05-07T05:56:06.888Z,11.10
2023-05-07T05:57:06.869Z,11.20
2023-05-07T05:58:06.869Z,10.90
2023-05-07T05:59:06.901Z,11.20
2023-05-07T06:00:06.864Z,11.00
2023-05-07T06:01:06.876Z,10.80
2023-05-07T06:02:06.919Z,10.50
2023-05-07T06:03:06.895Z,10.60
2023-05-07T06:04:06.872Z,10.60
2023-05-07T06:05:06.901Z,10.70
2023-05-07T06:06:06.866Z,10.20
2023-05-07T06:07:06.857Z,10.50
2023-05-07T06:08:06.865Z,10.70
2023-05-07T06:09:06.861Z,10.30
2023-05-07T06:10:06.951Z,10.40
2023-05-07T06:11:06.859Z,10.40
2023-05-07T06:12:06.881Z,10.20
2023-05-07T06:13:06.877Z,10.50
2023-05-07T06:14:06.852Z,10.50
2023-05-07T06:15:06.849Z,10.50
2023-05-07T06:16:06.932Z,10.50
2023-05-07T06:17:06.910Z,10.50
2023-05-07T06:18:06.895Z,10.10
2023-05-07T06:19:06.851Z,10.40
2023-05-07T06:20:06.849Z,10.30
2023-05-07T06:21:06.854Z,10.10
2023-05-07T06:22:06.845Z,10.00
2023-05-07T06:23:06.840Z,10.30
2023-05-07T06:24:06.848Z,11.30
2023-05-07T06:25:06.844Z,10.80
2023-05-07T06:26:06.861Z,11.50
2023-05-07T06:27:06.838Z,10.60
2023-05-07T06:28:06.847Z,10.30
2023-05-07T06:29:06.839Z,10.60
2023-05-07T06:30:06.844Z,10.90
2023-05-07T06:31:06.846Z,10.90
2023-05-07T06:32:06.943Z,10.80
2023-05-07T06:33:06.877Z,10.90
2023-05-07T06:34:06.859Z,10.90
2023-05-07T06:35:06.851Z,10.80
2023-05-07T06:36:06.840Z,10.90
2023-05-07T06:37:06.841Z,10.80
2023-05-07T06:38:06.843Z,10.60
2023-05-07T06:39:06.836Z,10.50
2023-05-07T06:40:06.844Z,13.40
2023-05-07T06:41:06.834Z,11.20
2023-05-07T06:42:06.960Z,11.00
2023-05-07T06:43:06.832Z,11.30
2023-05-07T06:44:06.865Z,11.60
2023-05-07T06:45:06.830Z,11.40
2023-05-07T06:46:06.861Z,11.10
2023-05-07T06:47:06.832Z,11.00
2023-05-07T06:48:06.893Z,10.50
2023-05-07T06:49:06.825Z,10.90
2023-05-07T06:50:06.840Z,11.10
2023-05-07T06:51:06.833Z,10.90
2023-05-07T06:52:06.829Z,10.80
2023-05-07T06:53:06.833Z,11.10
2023-05-07T06:54:06.880Z,11.10
2023-05-07T06:55:06.839Z,10.90
2023-05-07T06:56:06.837Z,11.00
2023-05-07T06:57:06.825Z,10.70
2023-05-07T06:58:06.855Z,10.80
2023-05-07T06:59:06.835Z,10.90
2023-05-07T07:00:06.828Z,10.60
2023-05-07T07:01:06.851Z,10.40
2023-05-07T07:02:06.827Z,10.10
2023-05-07T07:03:06.853Z,10.30
2023-05-07T07:04:06.825Z,10.60
2023-05-07T07:05:06.895Z,10.20
2023-05-07T07:06:06.826Z,10.50
2023-05-07T07:07:06.829Z,10.60
2023-05-07T07:08:06.822Z,10.70
2023-05-07T07:09:06.829Z,10.20
2023-05-07T07:10:06.835Z,10.40
2023-05-07T07:11:06.819Z,10.60
2023-05-07T07:12:06.824Z,10.50
2023-05-07T07:13:06.861Z,10.70
2023-05-07T07:14:06.962Z,9.90
2023-05-07T07:15:06.814Z,9.80
2023-05-07T07:16:06.871Z,10.00
2023-05-07T07:17:06.825Z,10.40
2023-05-07T07:18:06.838Z,10.30
2023-05-07T07:19:06.819Z,10.60
2023-05-07T07:20:06.847Z,10.30
2023-05-07T07:21:06.825Z,10.20
2023-05-07T07:22:06.819Z,10.70
2023-05-07T07:23:06.816Z,10.90
2023-05-07T07:24:06.828Z,11.00
2023-05-07T07:25:06.816Z,10.80
2023-05-07T07:26:06.825Z,10.80
2023-05-07T07:27:06.813Z,10.70
2023-05-07T07:28:06.813Z,10.70
2023-05-07T07:29:06.817Z,11.30
2023-05-07T07:30:06.933Z,11.20
2023-05-07T07:31:06.857Z,10.90
2023-05-07T07:32:06.815Z,11.20
2023-05-07T07:33:06.887Z,11.20
2023-05-07T07:34:06.820Z,11.00
2023-05-07T07:35:06.822Z,11.20
2023-05-07T07:36:06.824Z,11.40
2023-05-07T07:37:06.820Z,11.20
2023-05-07T07:38:06.834Z,11.60
2023-05-07T07:39:06.817Z,11.30
2023-05-07T07:40:06.830Z,11.50
2023-05-07T07:41:06.837Z,11.40
2023-05-07T07:42:06.824Z,11.60
2023-05-07T07:43:06.833Z,11.50
2023-05-07T07:44:06.834Z,11.60
2023-05-07T07:45:06.826Z,11.60
2023-05-07T07:46:06.846Z,11.60
2023-05-07T07:47:06.951Z,11.40
2023-05-07T07:48:06.861Z,11.10
2023-05-07T07:49:06.826Z,11.20
2023-05-07T07:50:06.840Z,11.60
2023-05-07T07:51:06.852Z,11.60
2023-05-07T07:52:06.836Z,12.10
2023-05-07T07:53:06.834Z,11.80
2023-05-07T07:54:06.839Z,12.10
2023-05-07T07:55:06.840Z,12.20
2023-05-07T07:56:06.845Z,11.80
2023-05-07T07:57:06.846Z,12.00
2023-05-07T07:58:06.848Z,11.90
2023-05-07T07:59:06.841Z,11.70
2023-05-07T08:00:06.854Z,11.90
2023-05-07T08:01:06.847Z,12.00
2023-05-07T08:02:06.989Z,12.10
2023-05-07T08:03:06.993Z,11.70
2023-05-07T08:04:07.052Z,11.50
2023-05-07T08:05:06.861Z,11.50
2023-05-07T08:06:06.865Z,12.70
2023-05-07T08:07:06.866Z,12.60
2023-05-07T08:08:06.908Z,12.10
2023-05-07T08:09:06.885Z,11.60
2023-05-07T08:10:06.885Z,12.30
2023-05-07T08:11:06.881Z,12.00
2023-05-07T08:12:06.894Z,11.90
2023-05-07T08:13:06.982Z,12.60
2023-05-07T08:14:06.898Z,12.30
2023-05-07T08:15:06.895Z,11.90
2023-05-07T08:16:06.913Z,12.70
2023-05-07T08:17:06.941Z,12.80
2023-05-07T08:18:07.008Z,12.20
2023-05-07T08:19:06.913Z,12.20
2023-05-07T08:20:06.924Z,12.20
2023-05-07T08:21:06.915Z,11.90
2023-05-07T08:22:06.942Z,11.80
2023-05-07T08:23:06.943Z,12.00
2023-05-07T08:24:06.941Z,12.40
2023-05-07T08:25:06.929Z,12.20
2023-05-07T08:26:06.958Z,12.10
2023-05-07T08:27:06.957Z,11.70
2023-05-07T08:28:09.045Z,11.80
2023-05-07T08:29:06.960Z,12.20
2023-05-07T08:30:06.968Z,11.80
2023-05-07T08:31:06.996Z,11.80
2023-05-07T08:32:06.969Z,12.60
2023-05-07T08:33:07.025Z,12.00
2023-05-07T08:34:09.433Z,12.30
2023-05-07T08:35:06.984Z,12.40
2023-05-07T08:36:07.003Z,12.40
2023-05-07T08:37:06.996Z,12.00
2023-05-07T08:38:06.989Z,12.40
2023-05-07T08:39:06.995Z,11.90
2023-05-07T08:40:09.245Z,12.10
2023-05-07T08:41:07.002Z,11.90
2023-05-07T08:42:07.031Z,11.80
2023-05-07T08:43:07.024Z,11.70
2023-05-07T08:44:07.037Z,11.40
2023-05-07T08:45:07.025Z,12.00
2023-05-07T08:46:10.051Z,12.00
2023-05-07T08:47:07.044Z,12.20
2023-05-07T08:48:07.101Z,11.70
2023-05-07T08:49:07.037Z,11.50
2023-05-07T08:50:07.194Z,11.40
2023-05-07T08:51:07.052Z,11.70
2023-05-07T08:52:09.202Z,11.60
2023-05-07T08:53:07.062Z,11.80
2023-05-07T08:54:07.063Z,11.80
2023-05-07T08:55:07.054Z,11.90
2023-05-07T08:56:07.129Z,12.10
2023-05-07T08:57:07.062Z,11.70
2023-05-07T08:58:07.068Z,11.50
2023-05-07T08:59:07.080Z,11.90
2023-05-07T09:00:07.080Z,11.80
2023-05-07T09:01:07.075Z,11.70
2023-05-07T09:02:09.287Z,12.20
2023-05-07T09:03:07.186Z,12.00
2023-05-07T09:04:07.165Z,12.00
2023-05-07T09:05:07.112Z,12.00
2023-05-07T09:06:07.142Z,12.10
2023-05-07T09:07:07.109Z,12.70
2023-05-07T09:08:07.128Z,12.20
2023-05-07T09:09:07.116Z,12.00
2023-05-07T09:10:07.122Z,11.90
2023-05-07T09:11:07.121Z,11.40
2023-05-07T09:12:07.129Z,11.30
2023-05-07T09:13:07.169Z,11.60
2023-05-07T09:14:08.954Z,11.80
2023-05-07T09:15:07.148Z,11.70
2023-05-07T09:16:07.164Z,11.80
2023-05-07T09:17:07.160Z,11.80
2023-05-07T09:18:07.181Z,11.10
2023-05-07T09:19:07.162Z,11.50
2023-05-07T09:20:09.357Z,11.60
2023-05-07T09:21:07.170Z,11.70
2023-05-07T09:22:07.328Z,11.60
2023-05-07T09:23:07.174Z,11.80
2023-05-07T09:24:07.197Z,11.60
2023-05-07T09:25:07.198Z,11.90
2023-05-07T09:26:07.970Z,11.00
2023-05-07T09:27:07.193Z,11.40
2023-05-07T09:28:07.199Z,11.50
2023-05-07T09:29:07.210Z,11.60
2023-05-07T09:30:07.232Z,12.40
2023-05-07T09:31:07.214Z,12.20
2023-05-07T09:32:07.334Z,11.70
2023-05-07T09:33:07.243Z,12.30
2023-05-07T09:34:07.232Z,12.50
2023-05-07T09:35:07.255Z,12.90
2023-05-07T09:36:07.243Z,12.50
2023-05-07T09:37:07.255Z,12.20
2023-05-07T09:38:07.274Z,12.40
2023-05-07T09:39:07.252Z,11.90
2023-05-07T09:40:07.262Z,11.80
2023-05-07T09:41:07.284Z,11.80
2023-05-07T09:42:07.265Z,11.30
2023-05-07T09:43:07.266Z,11.50
2023-05-07T09:44:08.259Z,11.80
2023-05-07T09:45:07.289Z,11.90
2023-05-07T09:46:07.316Z,11.50
2023-05-07T09:47:07.294Z,12.40
2023-05-07T09:48:07.336Z,11.60
2023-05-07T09:49:07.317Z,12.00
2023-05-07T09:50:07.319Z,11.70
2023-05-07T09:51:07.314Z,11.70
2023-05-07T09:52:07.395Z,11.40
2023-05-07T09:53:07.334Z,11.30
2023-05-07T09:54:07.490Z,11.50
2023-05-07T09:55:07.343Z,11.40
2023-05-07T09:56:07.352Z,11.60
2023-05-07T09:57:07.351Z,11.60
2023-05-07T09:58:07.377Z,11.50
2023-05-07T09:59:07.371Z,11.80
2023-05-07T10:00:07.400Z,11.70
2023-05-07T10:01:07.514Z,11.30
2023-05-07T10:02:07.388Z,11.40
2023-05-07T10:03:07.509Z,11.00
2023-05-07T10:04:07.405Z,11.40
2023-05-07T10:05:07.393Z,10.80
2023-05-07T10:06:07.403Z,11.50
2023-05-07T10:07:07.405Z,11.60
2023-05-07T10:08:07.416Z,11.30
2023-05-07T10:09:07.414Z,11.80
2023-05-07T10:10:07.517Z,11.60
2023-05-07T10:11:07.439Z,11.40
2023-05-07T10:12:07.434Z,11.90
2023-05-07T10:13:07.450Z,11.60
2023-05-07T10:14:07.447Z,11.60
2023-05-07T10:15:07.448Z,11.30
2023-05-07T10:16:07.444Z,11.60
2023-05-07T10:17:07.534Z,11.50
2023-05-07T10:18:07.643Z,11.50
2023-05-07T10:19:07.480Z,11.50
2023-05-07T10:20:08.452Z,10.60
2023-05-07T10:21:07.475Z,11.60
2023-05-07T10:22:07.474Z,11.40
2023-05-07T10:23:07.483Z,11.40
2023-05-07T10:24:07.495Z,11.30
2023-05-07T10:25:09.109Z,11.20
2023-05-07T10:26:07.681Z,11.10
2023-05-07T10:27:07.508Z,12.10
2023-05-07T10:28:07.518Z,11.60
2023-05-07T10:29:07.516Z,11.90
2023-05-07T10:30:07.540Z,11.30
2023-05-07T10:31:07.570Z,12.20
2023-05-07T10:32:07.526Z,11.30
2023-05-07T10:33:07.622Z,11.70
2023-05-07T10:34:07.544Z,11.90
2023-05-07T10:35:07.555Z,11.80
2023-05-07T10:36:07.563Z,10.90
2023-05-07T10:37:07.572Z,10.30
2023-05-07T10:38:07.569Z,11.40
2023-05-07T10:39:07.583Z,11.10
2023-05-07T10:40:07.576Z,11.60
2023-05-07T10:41:07.581Z,11.30
2023-05-07T10:42:07.683Z,11.40
2023-05-07T10:43:10.213Z,11.20
2023-05-07T10:44:07.594Z,11.50
2023-05-07T10:45:07.609Z,11.10
2023-05-07T10:46:07.698Z,10.40
2023-05-07T10:47:07.617Z,10.60
2023-05-07T10:48:20.916Z,10.60
2023-05-07T10:49:07.626Z,10.60
2023-05-07T10:50:07.702Z,10.90
2023-05-07T10:51:08.009Z,10.80
2023-05-07T10:52:07.642Z,10.90
2023-05-07T10:53:07.664Z,10.50
2023-05-07T10:54:07.655Z,11.10
2023-05-07T10:55:07.672Z,10.70
2023-05-07T10:56:07.685Z,10.70
2023-05-07T10:57:07.685Z,10.20
2023-05-07T10:58:09.015Z,10.70
2023-05-07T10:59:07.694Z,11.60
2023-05-07T11:00:07.704Z,10.70
2023-05-07T11:01:07.706Z,10.60
2023-05-07T11:02:07.880Z,11.00
2023-05-07T11:03:08.115Z,11.00
2023-05-07T11:04:07.720Z,10.90
2023-05-07T11:05:08.005Z,11.10
2023-05-07T11:06:07.739Z,11.50
2023-05-07T11:07:07.817Z,11.00
2023-05-07T11:08:07.758Z,11.40
2023-05-07T11:09:07.757Z,11.50
2023-05-07T11:10:07.770Z,11.50
2023-05-07T11:11:07.770Z,11.70
2023-05-07T11:12:07.776Z,11.70
2023-05-07T11:13:07.838Z,11.80
2023-05-07T11:14:08.052Z,12.20
2023-05-07T11:15:07.796Z,12.00
2023-05-07T11:16:07.853Z,11.50
2023-05-07T11:17:07.813Z,11.60
2023-05-07T11:18:07.917Z,12.20
2023-05-07T11:19:07.835Z,12.00
2023-05-07T11:20:07.842Z,12.20
2023-05-07T11:21:07.840Z,12.20
2023-05-07T11:22:09.777Z,12.30
2023-05-07T11:23:07.857Z,12.40
2023-05-07T11:24:07.882Z,12.40
2023-05-07T11:25:07.897Z,12.50
2023-05-07T11:26:07.882Z,12.00
2023-05-07T11:27:07.919Z,11.50
2023-05-07T11:28:07.928Z,11.60
2023-05-07T11:29:07.912Z,12.30
2023-05-07T11:30:08.046Z,12.00
2023-05-07T11:31:08.005Z,11.90
2023-05-07T11:32:07.988Z,12.20
2023-05-07T11:33:08.023Z,11.90
2023-05-07T11:34:07.963Z,12.00
2023-05-07T11:35:07.983Z,11.70
2023-05-07T11:36:07.982Z,11.80
2023-05-07T11:37:07.987Z,12.00
2023-05-07T11:38:07.995Z,11.90
2023-05-07T11:39:08.008Z,11.90
2023-05-07T11:40:08.029Z,11.40
2023-05-07T11:41:08.031Z,11.60
2023-05-07T11:42:08.041Z,12.00
2023-05-07T11:43:08.049Z,12.40
2023-05-07T11:44:08.088Z,12.00
2023-05-07T11:45:08.081Z,12.00
2023-05-07T11:46:08.222Z,12.00
2023-05-07T11:47:08.091Z,12.00
2023-05-07T11:48:08.155Z,11.80
2023-05-07T11:49:08.113Z,11.50
2023-05-07T11:50:08.120Z,11.70
2023-05-07T11:51:08.130Z,11.40
2023-05-07T11:52:08.155Z,11.50
2023-05-07T11:53:08.158Z,11.80
2023-05-07T11:54:08.171Z,11.90
2023-05-07T11:55:08.198Z,11.60
2023-05-07T11:56:08.201Z,11.40
2023-05-07T11:57:08.218Z,11.40
2023-05-07T11:58:10.239Z,11.20
2023-05-07T11:59:08.228Z,11.70
2023-05-07T12:00:08.235Z,12.30
2023-05-07T12:01:08.260Z,11.70
2023-05-07T12:02:08.366Z,12.10
2023-05-07T12:03:08.514Z,12.00
2023-05-07T12:04:08.420Z,12.10
2023-05-07T12:05:08.318Z,11.70
2023-05-07T12:06:08.322Z,12.30
2023-05-07T12:07:08.336Z,12.50
2023-05-07T12:08:08.345Z,12.60
2023-05-07T12:09:08.371Z,12.30
2023-05-07T12:10:08.525Z,12.50
2023-05-07T12:11:08.392Z,12.40
2023-05-07T12:12:08.400Z,12.30
2023-05-07T12:13:08.422Z,12.20
2023-05-07T12:14:10.878Z,12.10
2023-05-07T12:15:08.490Z,12.00
2023-05-07T12:16:08.455Z,12.00
2023-05-07T12:17:08.687Z,12.10
2023-05-07T12:18:08.548Z,11.80
2023-05-07T12:19:08.526Z,11.80
2023-05-07T12:20:08.573Z,11.70
2023-05-07T12:21:08.581Z,11.90
2023-05-07T12:22:08.546Z,12.40
2023-05-07T12:23:08.564Z,12.50
2023-05-07T12:24:08.574Z,12.60
2023-05-07T12:25:08.715Z,11.90
2023-05-07T12:26:08.598Z,11.40
2023-05-07T12:27:08.623Z,11.10
2023-05-07T12:28:08.645Z,11.10
2023-05-07T12:29:08.662Z,11.20
2023-05-07T12:30:08.690Z,11.50
2023-05-07T12:31:08.761Z,11.60
2023-05-07T12:32:08.702Z,11.60
2023-05-07T12:33:08.774Z,11.70
2023-05-07T12:34:08.768Z,11.90
2023-05-07T12:35:08.963Z,12.00
2023-05-07T12:36:08.802Z,12.20
2023-05-07T12:37:08.772Z,11.90
2023-05-07T12:38:08.783Z,12.30
2023-05-07T12:39:08.809Z,12.30
2023-05-07T12:40:08.986Z,12.30
2023-05-07T12:41:08.844Z,12.10
2023-05-07T12:42:08.871Z,12.00
2023-05-07T12:43:08.865Z,12.50
2023-05-07T12:44:08.885Z,12.40
2023-05-07T12:45:09.220Z,12.50
2023-05-07T12:46:09.569Z,12.40
2023-05-07T12:47:08.932Z,12.20
2023-05-07T12:48:09.002Z,12.20
2023-05-07T12:49:09.004Z,11.80
2023-05-07T12:50:09.011Z,11.90
2023-05-07T12:51:09.009Z,12.20
2023-05-07T12:52:09.040Z,11.90